Flight Track Log - Related Links

Times and Time Zones

All times are in EDT time to prevent confusion due to time zone crossing. See the SWA946 flight status page for this flight to view local times or setup timezone preferences in your user account.

Time Position Orientation Groundspeed Altitude Reporting Facility
EDT Latitude Longitude Course Direction KTS MPH feet Rate Location/Type
Sat 06:44:19 PM 33.4333 -112.0500 270° West 180 207 2,800  Level Phoenix TRACON
Sat 06:45:11 PM 33.4331 -112.1086 270° West 208 239 4,800 2,579 Climbing Albuquerque Center
Sat 06:46:13 PM 33.4506 -112.1861 285° West 252 290 7,700 2,732 Climbing Albuquerque Center
Sat 06:47:14 PM 33.5214 -112.1689 11° North 273 314 10,400 2,341 Climbing Albuquerque Center
Sat 06:48:16 PM 33.6097 -112.0947 35° Northeast 328 377 12,500 2,146 Climbing Albuquerque Center
Sat 06:49:17 PM 33.6931 -112.0264 34° Northeast 361 415 14,800 2,262 Climbing Albuquerque Center
Sat 06:50:18 PM 33.7778 -111.9564 34° Northeast 370 426 17,100 2,293 Climbing Albuquerque Center
Sat 06:51:20 PM 33.8736 -111.8767 35° Northeast 380 437 19,500 1,951 Climbing Albuquerque Center
Sat 06:52:21 PM 33.9664 -111.7997 35° Northeast 401 461 21,100 1,672 Climbing Albuquerque Center
Sat 06:53:22 PM 34.0619 -111.7233 34° Northeast 412 474 22,900 1,610 Climbing Albuquerque Center
Sat 06:54:24 PM 34.1783 -111.6772 18° North 409 471 24,400 1,220 Climbing Albuquerque Center
Sat 06:55:25 PM 34.2819 -111.6386 17° North 421 484 25,400 1,426 Climbing Albuquerque Center
Sat 06:56:26 PM 34.3947 -111.5939 18° North 427 491 27,300 1,902 Climbing Albuquerque Center
Sat 06:57:28 PM 34.5039 -111.5506 18° North 419 482 29,300 1,707 Climbing Albuquerque Center
Sat 06:58:29 PM 34.6078 -111.5506 360° North 386 444 30,800 1,377 Climbing Albuquerque Center
Sat 06:59:30 PM 34.7089 -111.5733 350° North 372 428 32,100 1,268 Climbing Albuquerque Center
Sat 07:00:32 PM 34.8275 -111.6008 349° North 365 420 33,400 927 Climbing Albuquerque Center
Sat 07:01:33 PM 34.9283 -111.6239 349° North 368 423 34,000 295 Climbing Albuquerque Center
Sat 07:02:34 PM 35.0294 -111.6481 349° North 370 426 34,000  Level Albuquerque Center
Sat 07:03:36 PM 35.1317 -111.6725 349° North 373 429 34,000  Level Albuquerque Center
Sat 07:04:37 PM 35.2264 -111.7219 337° Northwest 376 433 34,000  Level Albuquerque Center
Sat 07:05:38 PM 35.3306 -111.7814 335° Northwest 369 425 34,000  Level Albuquerque Center
Sat 07:06:39 PM 35.4219 -111.8333 335° Northwest 366 421 34,000  Level Albuquerque Center
Sat 07:07:41 PM 35.5125 -111.8861 335° Northwest 365 420 34,000  Level Albuquerque Center
Sat 07:08:42 PM 35.6031 -111.9383 335° Northwest 362 417 34,000  Level Albuquerque Center
Sat 07:09:04 PM 35.6394 -111.9592 335° Northwest 363 418 34,000  Level Los Angeles Center
Sat 07:10:06 PM 35.7294 -112.0125 334° Northwest 363 418 34,000  Level Los Angeles Center
Sat 07:11:08 PM 35.8219 -112.0642 336° Northwest 365 420 34,000  Level Los Angeles Center
Sat 07:12:10 PM 35.9133 -112.1178 335° Northwest 366 421 34,000  Level Los Angeles Center
Sat 07:13:12 PM 36.0342 -112.1506 348° North 381 438 34,000  Level Los Angeles Center
Sat 07:14:14 PM 36.1422 -112.1617 355° North 390 449 34,000  Level Los Angeles Center
Sat 07:15:15 PM 36.2583 -112.1711 356° North 391 450 34,000  Level Los Angeles Center
Sat 07:16:17 PM 36.3653 -112.1808 356° North 387 445 34,000  Level Los Angeles Center
Sat 07:17:19 PM 36.4697 -112.1906 356° North 382 440 34,000  Level Los Angeles Center
Sat 07:18:21 PM 36.5744 -112.2008 355° North 378 435 34,000  Level Los Angeles Center
Sat 07:19:23 PM 36.6781 -112.2100 356° North 375 432 34,000  Level Los Angeles Center
Sat 07:20:25 PM 36.7825 -112.2194 356° North 376 433 34,000  Level Los Angeles Center
Sat 07:21:27 PM 36.9072 -112.2308 356° North 375 432 34,000  Level Los Angeles Center
Sat 07:22:29 PM 37.0122 -112.2403 356° North 379 436 34,000  Level Los Angeles Center
Sat 07:23:31 PM 37.1161 -112.2497 356° North 377 434 34,000  Level Los Angeles Center
Sat 07:24:33 PM 37.2200 -112.2597 356° North 376 433 34,000  Level Los Angeles Center
Sat 07:25:35 PM 37.3242 -112.2697 356° North 377 434 34,000  Level Los Angeles Center
Sat 07:26:36 PM 37.4278 -112.2797 356° North 377 434 34,000  Level Los Angeles Center
Sat 07:27:37 PM 37.5542 -112.2908 356° North 380 437 34,000  Level Salt Lake Center
Sat 07:28:38 PM 37.6608 -112.3025 355° North 385 443 34,000  Level Salt Lake Center
Sat 07:29:39 PM 37.7681 -112.3131 356° North 387 445 34,000  Level Salt Lake Center
Sat 07:30:40 PM 37.8733 -112.3272 354° North 386 444 34,000  Level Salt Lake Center
Sat 07:31:42 PM 37.9803 -112.3414 354° North 387 445 34,000  Level Salt Lake Center
Sat 07:32:43 PM 38.0850 -112.3547 354° North 382 440 34,000  Level Salt Lake Center
Sat 07:33:44 PM 38.1903 -112.3683 354° North 381 438 34,000 -344 Level Salt Lake Center
Sat 07:34:45 PM 38.3144 -112.3836 354° North 376 433 33,300 -829 Descending Salt Lake Center
Sat 07:35:47 PM 38.4161 -112.3958 355° North 369 425 32,300 -634 Descending Salt Lake Center
Sat 07:36:48 PM 38.5203 -112.4081 355° North 375 432 32,000 -148 Descending Salt Lake Center
Sat 07:37:49 PM 38.6239 -112.4203 355° North 375 432 32,000  Level Salt Lake Center
Sat 07:38:50 PM 38.7278 -112.4328 355° North 376 433 32,000  Level Salt Lake Center
Sat 07:39:52 PM 38.8333 -112.4475 354° North 381 438 32,000  Level Salt Lake Center
Sat 07:40:53 PM 38.9383 -112.4603 355° North 379 436 32,000  Level Salt Lake Center
Sat 07:41:54 PM 39.0433 -112.4731 355° North 379 436 32,000  Level Salt Lake Center
Sat 07:42:56 PM 39.1475 -112.4858 355° North 377 434 32,000  Level Salt Lake Center
Sat 07:43:57 PM 39.2608 -112.5003 354° North 378 435 32,000  Level Salt Lake Center
Sat 07:44:58 PM 39.3667 -112.4867 North 387 445 32,000 -934 Level Salt Lake Center
Sat 07:45:59 PM 39.4728 -112.4492 15° North 393 452 30,100 -2,049 Descending Salt Lake Center
Sat 07:47:01 PM 39.5736 -112.4153 15° North 379 436 27,800 -2,488 Descending Salt Lake Center
Sat 07:48:02 PM 39.6933 -112.3769 14° North 371 427 25,000 -2,410 Descending Salt Lake Center
Sat 07:49:03 PM 39.7883 -112.3444 15° North 358 412 22,900 -2,108 Descending Salt Lake Center
Sat 07:49:53 PM 39.8681 -112.3303 North 345 397 21,100 -2,000 Descending Salt Lake Center
Sat 07:51:06 PM 39.9692 -112.2839 19° North 328 377 18,800 -1,836 Descending Salt Lake Center
Sat 07:52:07 PM 40.0572 -112.2525 15° North 330 380 17,000 -885 Descending Salt Lake Center
Sat 07:53:08 PM 40.1458 -112.2233 14° North 329 379 17,000 -738 Level Salt Lake Center
Sat 07:54:09 PM 40.2350 -112.1925 15° North 333 383 15,500 -1,714 Descending Salt Lake Center
Sat 07:54:32 PM 40.2767 -112.1861 North 331 381 14,600 -1,475 Descending Salt Lake Center
Sat 07:55:10 PM 40.3228 -112.1628 21° North 327 376 14,000 -689 Descending Salt Lake Center
Sat 07:55:33 PM 40.3589 -112.1558 North 315 362 13,900  Descending Salt Lake Center
Sat 07:56:12 PM 40.4022 -112.1364 19° North 297 342 14,000  Climbing Salt Lake Center
Sat 07:56:27 PM 40.4336 -112.1308 North 297 342 13,900 -984 Descending Salt Lake Center
Sat 07:57:13 PM 40.4856 -112.1075 19° North 311 358 13,000 -1,082 Descending Salt Lake Center
Sat 07:57:28 PM 40.5200 -112.0989 11° North 311 358 12,800 -984 Descending Salt Lake Center
Sat 07:58:14 PM 40.5681 -112.0808 16° North 307 353 12,000 -885 Descending Salt Lake Center
Sat 07:58:29 PM 40.6008 -112.0831 357° North 298 343 11,900 -885 Descending Salt Lake Center
Sat 07:59:15 PM 40.6656 -112.0800 North 292 336 11,100 -505 Descending Salt Lake Center
Sat 08:00:16 PM 40.7358 -112.0886 355° North 250 288 11,000 -244 Descending Salt Lake Center
Sat 08:01:18 PM 40.8042 -112.0992 353° North 236 272 10,600 -934 Descending Salt Lake Center
Sat 08:02:18 PM 40.8639 -112.1047 356° North 228 262 9,100 -1,488 Descending Salt Lake Center
Sat 08:03:19 PM 40.9158 -112.0817 19° North 212 244 7,600 -1,475 Descending Salt Lake Center
Sat 08:04:20 PM 40.9039 -112.0178 104° East 196 226 6,100 -1,180 Descending Salt Lake Center
Sat 08:05:21 PM 40.8606 -112.0058 168° South 161 185 5,200 -893 Descending Salt Lake Center
Sat 08:06:21 PM 40.8114 -112.0033 178° South 158 182 4,300 -900 Descending Salt Lake Center
Sat 08:08:00 PM 40.7884 -111.9778 North  Level Estimated

Login

Don't have an account? Register now (free) for customized features, flight alerts, and more!